createdAt,value
2018-09-30T00:01:22.067Z,28.37
2018-09-30T00:03:50.554Z,25.30
2018-09-30T00:06:19.071Z,23.30
2018-09-30T00:08:47.562Z,17.23
2018-09-30T00:11:16.094Z,17.80
2018-09-30T00:13:44.728Z,17.20
2018-09-30T00:16:13.283Z,13.50
2018-09-30T00:18:48.577Z,10.70
2018-09-30T00:21:17.070Z,12.47
2018-09-30T00:23:50.777Z,13.30
2018-09-30T00:26:24.728Z,12.37
2018-09-30T00:28:53.221Z,11.43
2018-09-30T00:31:21.746Z,5.93
2018-09-30T00:33:55.601Z,4.90
2018-09-30T00:36:24.262Z,5.20
2018-09-30T00:38:53.058Z,4.73
2018-09-30T00:41:21.570Z,5.20
2018-09-30T00:43:50.086Z,4.20
2018-09-30T00:46:19.145Z,2.73
2018-09-30T00:48:47.660Z,3.00
2018-09-30T00:51:16.175Z,3.23
2018-09-30T00:53:44.656Z,2.83
2018-09-30T00:56:13.883Z,2.77
2018-09-30T00:58:43.378Z,3.33
2018-09-30T01:01:12.405Z,3.33
2018-09-30T01:03:40.886Z,3.40
2018-09-30T01:06:09.411Z,2.80
2018-09-30T01:08:38.218Z,3.60
2018-09-30T01:11:07.378Z,3.73
2018-09-30T01:13:35.861Z,3.70
2018-09-30T01:16:04.386Z,3.07
2018-09-30T01:18:32.917Z,2.93
2018-09-30T01:21:01.469Z,3.20
2018-09-30T01:23:29.959Z,3.47
2018-09-30T01:25:58.457Z,3.13
2018-09-30T01:28:27.006Z,2.50
2018-09-30T01:30:55.485Z,2.50
2018-09-30T01:33:24.029Z,2.60
2018-09-30T01:35:52.588Z,3.47
2018-09-30T01:38:21.082Z,2.60
2018-09-30T01:40:49.629Z,3.23
2018-09-30T01:43:18.134Z,3.30
2018-09-30T01:45:46.617Z,2.87
2018-09-30T01:48:15.182Z,3.10
2018-09-30T01:50:43.660Z,2.70
2018-09-30T01:53:12.279Z,2.60
2018-09-30T01:55:40.824Z,3.47
2018-09-30T01:58:09.342Z,4.07
2018-09-30T02:00:37.863Z,3.60
2018-09-30T02:03:06.565Z,3.63
2018-09-30T02:05:35.105Z,3.73
2018-09-30T02:08:03.661Z,3.90
2018-09-30T02:10:32.153Z,4.40
2018-09-30T02:13:00.698Z,4.57
2018-09-30T02:15:30.076Z,3.63
2018-09-30T02:17:58.612Z,3.87
2018-09-30T02:20:27.093Z,4.77
2018-09-30T02:22:55.672Z,4.67
2018-09-30T02:25:24.186Z,5.77
2018-09-30T02:27:52.810Z,6.47
2018-09-30T02:30:21.323Z,6.00
2018-09-30T02:32:49.812Z,6.20
2018-09-30T02:35:18.371Z,6.80
2018-09-30T02:37:46.917Z,5.97
2018-09-30T02:40:15.425Z,7.50
2018-09-30T02:42:43.962Z,5.90
2018-09-30T02:45:12.491Z,4.37
2018-09-30T02:47:40.998Z,5.60
2018-09-30T02:50:09.881Z,4.73
2018-09-30T02:52:38.379Z,5.77
2018-09-30T02:55:06.878Z,5.40
2018-09-30T02:57:35.406Z,5.93
2018-09-30T03:00:03.898Z,5.83
2018-09-30T03:02:32.429Z,4.80
2018-09-30T03:05:00.995Z,4.90
2018-09-30T03:07:34.793Z,4.67
2018-09-30T03:10:03.391Z,4.20
2018-09-30T03:12:31.890Z,5.97
2018-09-30T03:15:00.492Z,5.07
2018-09-30T03:17:28.994Z,5.50
2018-09-30T03:19:57.505Z,6.13
2018-09-30T07:38:11.543Z,10.43
2018-09-30T07:40:40.043Z,11.03
2018-09-30T07:43:08.513Z,9.17
2018-09-30T07:45:37.023Z,9.90
2018-09-30T07:48:05.619Z,9.83
2018-09-30T07:50:34.775Z,9.20
2018-09-30T07:53:03.239Z,8.53
2018-09-30T07:55:31.930Z,8.87
2018-09-30T07:58:00.527Z,8.47
2018-09-30T08:00:29.097Z,9.97
2018-09-30T08:02:57.678Z,8.40
2018-09-30T08:05:26.395Z,9.20
2018-09-30T08:07:54.859Z,8.80
2018-09-30T08:10:23.605Z,9.10
2018-09-30T08:12:52.154Z,7.63
2018-09-30T08:15:20.689Z,6.73
2018-09-30T08:17:49.411Z,6.80
2018-09-30T08:20:24.197Z,7.67
2018-09-30T08:22:52.737Z,8.10
2018-09-30T08:25:21.277Z,6.90
2018-09-30T08:27:49.805Z,7.27
2018-09-30T08:30:18.357Z,6.90
2018-09-30T08:32:46.930Z,7.17
2018-09-30T08:35:15.491Z,7.33
2018-09-30T08:37:49.374Z,6.20
2018-09-30T08:40:23.278Z,7.13
2018-09-30T08:42:51.826Z,5.97
2018-09-30T08:45:20.354Z,6.03
2018-09-30T08:47:48.936Z,6.97
2018-09-30T08:50:17.378Z,7.63
2018-09-30T08:52:45.965Z,7.47
2018-09-30T08:55:14.442Z,7.20
2018-09-30T08:57:43.027Z,6.70
2018-09-30T09:00:11.554Z,6.60
2018-09-30T09:02:40.038Z,6.80
2018-09-30T09:05:08.785Z,7.13
2018-09-30T09:07:37.304Z,6.33
2018-09-30T09:10:05.808Z,6.13
2018-09-30T09:12:34.410Z,6.53
2018-09-30T09:15:09.635Z,5.53
2018-09-30T09:17:38.150Z,6.77
2018-09-30T09:20:06.749Z,5.97
2018-09-30T09:22:35.619Z,6.50
2018-09-30T09:25:04.238Z,7.23
2018-09-30T09:27:32.803Z,7.97
2018-09-30T09:30:01.277Z,5.87
2018-09-30T09:32:33.427Z,5.70
2018-09-30T09:35:01.966Z,6.60
2018-09-30T09:37:30.449Z,6.00
2018-09-30T09:39:59.066Z,5.53
2018-09-30T09:42:27.545Z,6.10
2018-09-30T09:44:56.183Z,7.27
2018-09-30T09:47:24.670Z,6.77
2018-09-30T09:49:53.245Z,7.30
2018-09-30T09:52:21.804Z,6.77
2018-09-30T09:54:50.297Z,6.40
2018-09-30T09:57:19.113Z,6.60
2018-09-30T09:59:47.906Z,7.03
2018-09-30T10:02:16.952Z,6.40
2018-09-30T10:04:45.448Z,5.90
2018-09-30T10:07:13.939Z,6.60
2018-09-30T10:09:42.503Z,6.50
2018-09-30T10:12:11.139Z,6.23
2018-09-30T10:14:39.611Z,8.07
2018-09-30T10:17:08.423Z,7.90
2018-09-30T10:19:37.466Z,7.53
2018-09-30T10:22:05.946Z,8.23
2018-09-30T10:24:34.563Z,7.13
2018-09-30T10:27:03.077Z,8.30
2018-09-30T10:29:31.593Z,7.57
2018-09-30T10:32:00.295Z,7.90
2018-09-30T10:34:28.785Z,8.00
2018-09-30T10:37:04.285Z,7.67
2018-09-30T10:39:32.763Z,7.90
2018-09-30T10:42:01.259Z,6.60
2018-09-30T10:44:29.801Z,6.93
2018-09-30T10:46:58.287Z,7.20
2018-09-30T10:49:26.821Z,7.47
2018-09-30T10:51:55.285Z,7.27
2018-09-30T10:54:23.821Z,8.80
2018-09-30T10:56:52.377Z,9.00
2018-09-30T10:59:20.833Z,7.73
2018-09-30T11:01:49.329Z,7.37
2018-09-30T11:04:18.077Z,7.10
2018-09-30T11:06:47.320Z,7.80
2018-09-30T11:09:15.795Z,7.70
2018-09-30T11:11:44.350Z,7.77
2018-09-30T11:14:12.893Z,6.63
2018-09-30T11:16:41.445Z,7.30
2018-09-30T11:19:09.980Z,6.50
2018-09-30T11:21:38.473Z,6.50
2018-09-30T11:24:07.194Z,7.73
2018-09-30T11:26:36.389Z,8.40
2018-09-30T11:29:04.905Z,6.57
2018-09-30T11:31:33.466Z,7.10
2018-09-30T11:34:01.965Z,6.80
2018-09-30T11:36:30.458Z,7.97
2018-09-30T11:38:58.966Z,6.80
2018-09-30T11:41:27.513Z,7.30
2018-09-30T11:43:56.965Z,7.23
2018-09-30T11:46:25.473Z,7.17
2018-09-30T11:48:53.953Z,7.30
2018-09-30T11:51:22.441Z,7.27
2018-09-30T11:53:50.947Z,7.23
2018-09-30T11:56:19.409Z,7.57
2018-09-30T11:58:47.873Z,7.37
2018-09-30T12:01:16.412Z,5.77
2018-09-30T12:03:44.889Z,4.70
2018-09-30T12:06:13.397Z,4.17
2018-09-30T12:08:41.867Z,5.00
2018-09-30T12:11:10.403Z,4.63
2018-09-30T12:13:38.929Z,4.23
2018-09-30T12:16:07.767Z,4.53
2018-09-30T12:18:36.256Z,4.30
2018-09-30T12:22:08.094Z,4.80
2018-09-30T12:24:36.661Z,4.90
2018-09-30T12:27:05.209Z,4.63
2018-09-30T12:29:34.094Z,5.83
2018-09-30T12:32:02.594Z,4.30
2018-09-30T12:34:31.033Z,4.30
2018-09-30T12:36:59.550Z,6.30
2018-09-30T12:39:28.268Z,4.10
2018-09-30T12:41:56.706Z,3.87
2018-09-30T12:44:25.305Z,3.83
2018-09-30T12:46:53.829Z,4.03
2018-09-30T12:49:22.393Z,3.60
2018-09-30T12:51:50.884Z,3.10
2018-09-30T12:54:19.385Z,3.80
2018-09-30T12:56:47.927Z,4.20
2018-09-30T12:59:16.954Z,4.00
2018-09-30T13:01:45.432Z,4.40
2018-09-30T13:04:14.115Z,3.73
2018-09-30T13:06:42.640Z,3.47
2018-09-30T13:09:11.602Z,4.47
2018-09-30T13:11:40.177Z,4.50
2018-09-30T13:14:08.878Z,3.73
2018-09-30T13:16:37.422Z,3.80
2018-09-30T13:19:06.042Z,4.20
2018-09-30T13:21:34.559Z,4.70
2018-09-30T13:24:03.073Z,4.90
2018-09-30T13:26:31.569Z,4.30
2018-09-30T13:29:00.142Z,4.73
2018-09-30T13:31:28.646Z,4.23
2018-09-30T13:33:57.238Z,4.30
2018-09-30T13:36:25.806Z,4.87
2018-09-30T13:38:55.018Z,6.70
2018-09-30T13:41:23.590Z,5.50
2018-09-30T13:43:52.109Z,4.93
2018-09-30T13:46:20.665Z,5.50
2018-09-30T13:48:49.246Z,4.67
2018-09-30T13:51:17.925Z,4.77
2018-09-30T13:53:46.489Z,5.07
2018-09-30T13:56:15.025Z,4.53
2018-09-30T13:58:43.659Z,5.10
2018-09-30T14:01:12.221Z,4.60
2018-09-30T14:03:40.737Z,4.50
2018-09-30T14:06:09.320Z,3.80
2018-09-30T14:08:37.818Z,3.53
2018-09-30T14:11:06.474Z,3.83
2018-09-30T14:13:34.989Z,3.80
2018-09-30T14:16:03.562Z,3.63
2018-09-30T14:18:32.097Z,4.10
2018-09-30T14:21:00.582Z,3.27
2018-09-30T14:23:29.134Z,3.80
2018-09-30T14:25:57.666Z,3.70
2018-09-30T14:28:26.158Z,4.07
2018-09-30T14:30:54.942Z,3.57
2018-09-30T14:33:23.446Z,3.30
2018-09-30T14:35:51.902Z,3.50
2018-09-30T14:38:20.557Z,3.20
2018-09-30T14:40:49.058Z,3.57
2018-09-30T14:43:17.555Z,3.47
2018-09-30T14:45:46.077Z,4.50
2018-09-30T14:48:14.656Z,5.10
2018-09-30T14:50:43.148Z,5.60
2018-09-30T14:53:11.704Z,5.40
2018-09-30T14:55:40.187Z,5.87
2018-09-30T14:58:09.084Z,5.30
2018-09-30T15:00:37.830Z,5.90
2018-09-30T15:03:06.301Z,4.67
2018-09-30T15:05:34.830Z,5.03
2018-09-30T15:08:03.370Z,4.90
2018-09-30T15:10:31.830Z,6.30
2018-09-30T15:13:00.382Z,4.87
2018-09-30T15:15:28.945Z,4.50
2018-09-30T15:17:57.489Z,4.60
2018-09-30T15:20:26.005Z,4.07
2018-09-30T15:22:54.793Z,4.47
2018-09-30T15:25:23.295Z,5.17
2018-09-30T15:27:52.567Z,5.23
2018-09-30T15:30:21.129Z,4.53
2018-09-30T15:32:49.682Z,5.90
2018-09-30T15:35:18.246Z,6.30
2018-09-30T15:37:46.798Z,6.00
2018-09-30T15:40:15.345Z,6.10
2018-09-30T15:42:43.927Z,5.03
2018-09-30T15:45:12.634Z,5.40
2018-09-30T15:47:41.131Z,5.43
2018-09-30T15:50:09.658Z,6.60
2018-09-30T15:52:38.153Z,6.30
2018-09-30T15:55:06.886Z,6.77
2018-09-30T15:57:35.370Z,7.13
2018-09-30T16:00:04.045Z,6.70
2018-09-30T16:02:32.567Z,6.90
2018-09-30T16:05:01.710Z,7.33
2018-09-30T16:07:30.701Z,7.23
2018-09-30T16:09:59.177Z,7.03
2018-09-30T16:12:27.951Z,7.10
2018-09-30T16:14:56.478Z,6.63
2018-09-30T16:17:24.983Z,6.30
2018-09-30T16:19:53.576Z,6.60
2018-09-30T16:22:22.053Z,7.00
2018-09-30T16:24:50.577Z,6.53
2018-09-30T16:27:19.037Z,6.60
2018-09-30T16:29:47.586Z,5.93
2018-09-30T16:32:16.089Z,7.23
2018-09-30T16:34:44.575Z,7.30
2018-09-30T16:37:13.340Z,5.70
2018-09-30T16:39:41.847Z,6.47
2018-09-30T16:42:10.419Z,6.50
2018-09-30T16:44:39.045Z,6.57
2018-09-30T16:47:07.504Z,5.83
2018-09-30T16:49:36.039Z,5.80
2018-09-30T16:52:04.573Z,6.00
2018-09-30T16:54:33.050Z,6.30
2018-09-30T16:57:01.566Z,6.80
2018-09-30T16:59:30.037Z,5.63
2018-09-30T17:01:58.546Z,5.90
2018-09-30T17:04:27.049Z,6.30
2018-09-30T17:06:55.597Z,7.40
2018-09-30T17:09:24.137Z,6.87
2018-09-30T17:11:52.709Z,7.00
2018-09-30T17:14:21.228Z,7.70
2018-09-30T17:16:49.736Z,7.37
2018-09-30T17:19:18.222Z,6.80
2018-09-30T17:21:46.730Z,6.80
2018-09-30T17:24:15.382Z,6.57
2018-09-30T17:26:44.788Z,7.60
2018-09-30T17:29:14.464Z,7.40
2018-09-30T17:31:43.157Z,7.13
2018-09-30T17:34:11.697Z,7.57
2018-09-30T17:36:40.278Z,7.10
2018-09-30T17:39:10.031Z,6.83
2018-09-30T17:41:38.535Z,6.73
2018-09-30T17:44:07.013Z,6.80
2018-09-30T17:46:35.526Z,7.07
2018-09-30T17:49:04.174Z,7.20
2018-09-30T17:51:32.737Z,8.33
2018-09-30T17:54:01.250Z,7.60
2018-09-30T17:56:29.838Z,8.20
2018-09-30T17:58:58.365Z,8.70
2018-09-30T18:01:26.869Z,8.40
2018-09-30T18:03:55.434Z,8.67
2018-09-30T18:06:24.027Z,8.10
2018-09-30T18:08:52.578Z,9.33
2018-09-30T18:11:21.082Z,8.10
2018-09-30T18:13:50.906Z,9.83
2018-09-30T18:16:19.841Z,19.87
2018-09-30T18:18:48.447Z,11.73
2018-09-30T18:21:17.469Z,9.87
2018-09-30T18:23:47.344Z,11.13
2018-09-30T18:26:16.147Z,9.50
2018-09-30T18:28:44.730Z,10.00
2018-09-30T18:31:13.518Z,8.57
2018-09-30T18:33:42.513Z,9.63
2018-09-30T18:36:14.149Z,8.90
2018-09-30T18:38:42.794Z,8.60
2018-09-30T18:41:11.466Z,8.17
2018-09-30T18:43:39.989Z,8.93
2018-09-30T18:46:08.766Z,9.40
2018-09-30T18:48:37.619Z,8.40
2018-09-30T18:51:06.468Z,9.13
2018-09-30T18:53:35.238Z,10.93
2018-09-30T18:56:04.103Z,10.70
2018-09-30T18:58:32.528Z,12.17
2018-09-30T19:01:01.232Z,13.83
2018-09-30T19:03:29.934Z,13.40
2018-09-30T19:05:58.620Z,12.40
2018-09-30T19:08:27.240Z,12.20
2018-09-30T19:10:56.432Z,11.57
2018-09-30T19:13:24.984Z,11.63
2018-09-30T19:15:54.063Z,10.30
2018-09-30T19:18:22.806Z,10.97
2018-09-30T19:20:51.776Z,11.23
2018-09-30T19:23:20.451Z,13.00
2018-09-30T19:25:49.241Z,11.10
2018-09-30T19:28:17.969Z,10.50
2018-09-30T19:30:46.550Z,12.10
2018-09-30T19:33:15.202Z,11.50
2018-09-30T19:35:43.943Z,11.10
2018-09-30T19:38:12.782Z,12.60
2018-09-30T19:40:41.701Z,11.70
2018-09-30T19:43:10.318Z,11.20
2018-09-30T19:45:38.930Z,11.80
2018-09-30T19:48:07.887Z,12.30
2018-09-30T19:50:36.453Z,13.97
2018-09-30T19:53:05.426Z,11.67
2018-09-30T19:55:34.430Z,15.60
2018-09-30T19:58:03.100Z,13.70
2018-09-30T20:00:31.946Z,15.70
2018-09-30T20:03:00.746Z,13.63
2018-09-30T20:05:29.466Z,15.33
2018-09-30T20:07:58.690Z,15.07
2018-09-30T20:10:27.256Z,15.37
2018-09-30T20:12:56.040Z,14.80
2018-09-30T20:15:24.614Z,14.43
2018-09-30T20:17:53.482Z,14.83
2018-09-30T20:20:22.061Z,13.53
2018-09-30T20:22:51.229Z,15.03
2018-09-30T20:25:19.885Z,13.40
2018-09-30T20:27:48.411Z,15.10
2018-09-30T20:30:17.190Z,14.03
2018-09-30T20:32:45.653Z,15.07
2018-09-30T20:36:17.372Z,15.37
2018-09-30T20:38:45.887Z,15.70
2018-09-30T20:41:14.361Z,15.33
2018-09-30T20:43:42.875Z,15.90
2018-09-30T20:46:18.277Z,14.87
2018-09-30T20:48:47.117Z,15.30
2018-09-30T20:51:15.641Z,16.47
2018-09-30T20:53:44.091Z,13.33
2018-09-30T20:56:12.702Z,14.77
2018-09-30T20:58:41.250Z,14.07
2018-09-30T21:01:10.126Z,14.70
2018-09-30T21:03:38.675Z,14.63
2018-09-30T21:06:16.661Z,13.50
2018-09-30T21:08:46.063Z,13.50
2018-09-30T21:11:14.582Z,14.83
2018-09-30T21:13:43.413Z,12.57
2018-09-30T21:16:12.229Z,11.40
2018-09-30T21:18:40.858Z,13.00
2018-09-30T21:21:09.382Z,10.07
2018-09-30T21:23:37.857Z,11.20
2018-09-30T21:26:06.564Z,11.60
2018-09-30T21:28:36.011Z,12.57
2018-09-30T21:31:05.164Z,13.00
2018-09-30T21:33:33.680Z,12.70
2018-09-30T21:36:02.194Z,11.40
2018-09-30T21:38:30.729Z,11.00
2018-09-30T21:40:59.233Z,12.70
2018-09-30T21:43:27.865Z,12.70
2018-09-30T21:45:56.340Z,11.10
2018-09-30T21:48:24.865Z,10.83
2018-09-30T21:50:53.366Z,12.00
2018-09-30T21:53:21.849Z,11.87
2018-09-30T21:55:50.363Z,11.20
2018-09-30T21:58:18.837Z,10.00
2018-09-30T22:00:52.726Z,9.30
2018-09-30T22:03:21.270Z,9.60
2018-09-30T22:05:49.794Z,10.00
2018-09-30T22:08:18.413Z,10.53
2018-09-30T22:10:46.961Z,9.90
2018-09-30T22:13:15.451Z,9.00
2018-09-30T22:15:44.227Z,9.40
2018-09-30T22:18:12.750Z,9.70
2018-09-30T22:20:41.250Z,9.90
2018-09-30T22:23:09.805Z,10.27
2018-09-30T22:25:38.353Z,9.83
2018-09-30T22:28:07.108Z,8.80
2018-09-30T22:30:35.684Z,9.70
2018-09-30T22:33:04.661Z,8.77
2018-09-30T22:35:33.222Z,9.13
2018-09-30T22:38:01.707Z,8.10
2018-09-30T22:40:30.229Z,8.60
2018-09-30T22:42:58.839Z,7.13
2018-09-30T22:45:27.382Z,7.80
2018-09-30T22:47:55.877Z,6.50
2018-09-30T22:50:24.448Z,7.43
2018-09-30T22:52:52.926Z,6.70
2018-09-30T22:55:21.455Z,6.83
2018-09-30T22:57:50.374Z,6.10
2018-09-30T23:00:18.858Z,7.10
2018-09-30T23:02:47.363Z,6.27
2018-09-30T23:05:15.865Z,5.30
2018-09-30T23:07:44.345Z,4.20
2018-09-30T23:10:13.657Z,5.13
2018-09-30T23:12:42.418Z,4.47
2018-09-30T23:15:11.052Z,3.77
2018-09-30T23:17:39.956Z,4.90
2018-09-30T23:20:14.058Z,5.20
2018-09-30T23:22:42.573Z,4.37
2018-09-30T23:25:11.246Z,4.10
2018-09-30T23:27:39.757Z,3.67
2018-09-30T23:30:08.390Z,3.90
2018-09-30T23:32:37.189Z,4.80
2018-09-30T23:35:05.993Z,3.40
2018-09-30T23:37:34.468Z,3.10
2018-09-30T23:40:03.348Z,3.70
2018-09-30T23:43:35.120Z,4.30
2018-09-30T23:46:03.677Z,2.87
2018-09-30T23:48:32.169Z,4.13
2018-09-30T23:51:00.666Z,4.73
2018-09-30T23:53:29.179Z,3.60
2018-09-30T23:55:57.737Z,3.37
2018-09-30T23:58:26.227Z,3.70
